Terminal Aerodrome Forecast
Issued by NWS

Home | Current Version | Previous Version | Text Only | Print | Product List | Glossary On
Versions: 1 2 3 4 5 6 7 8 9 10 11 12
468
FTUS45 KVEF 041737
TAFHND
TAF
KHND 041737Z 0418/0518 14005KT P6SM SCT250
     FM042000 17016G22KT P6SM SCT250
     FM050300 19010KT P6SM SCT250=

USA.gov is the U.S. government's official web portal to all federal, state and local government web resources and services.